createdAt,value
2023-05-09T00:00:21.495Z,63.666667
2023-05-09T00:05:23.509Z,65.214286
2023-05-09T00:10:25.710Z,64.333333
2023-05-09T00:15:27.880Z,62.866667
2023-05-09T00:20:30.172Z,61.733333
2023-05-09T00:25:32.438Z,61.866667
2023-05-09T00:30:35.221Z,63.666667
2023-05-09T00:35:16.828Z,64.600000
2023-05-09T00:40:18.834Z,64.333333
2023-05-09T00:45:20.890Z,65.666667
2023-05-09T00:50:23.268Z,71.071429
2023-05-09T00:55:25.246Z,75.000000
2023-05-09T01:00:27.610Z,74.733333
2023-05-09T01:05:29.455Z,72.600000
2023-05-09T01:10:31.602Z,71.266667
2023-05-09T01:15:33.972Z,68.466667
2023-05-09T01:20:16.042Z,67.000000
2023-05-09T01:25:18.383Z,66.333333
2023-05-09T01:30:20.910Z,66.000000
2023-05-09T01:35:23.350Z,64.785714
2023-05-09T01:40:25.867Z,64.466667
2023-05-09T01:45:27.826Z,65.066667
2023-05-09T01:50:30.018Z,67.066667
2023-05-09T01:55:32.183Z,66.266667
2023-05-09T02:00:34.843Z,65.533333
2023-05-09T02:05:16.774Z,66.000000
2023-05-09T02:10:18.687Z,67.266667
2023-05-09T02:15:20.921Z,67.600000
2023-05-09T02:20:23.109Z,67.571429
2023-05-09T02:25:25.105Z,67.333333
2023-05-09T02:30:27.253Z,67.333333
2023-05-09T02:35:29.316Z,68.000000
2023-05-09T02:40:31.672Z,66.533333
2023-05-09T02:45:34.553Z,64.666667
2023-05-09T02:50:16.131Z,63.866667
2023-05-09T02:55:18.490Z,63.933333
2023-05-09T03:00:20.538Z,63.466667
2023-05-09T03:05:22.833Z,61.571429
2023-05-09T03:10:25.161Z,60.733333
2023-05-09T03:15:27.488Z,61.800000
2023-05-09T03:20:29.838Z,62.933333
2023-05-09T03:25:32.133Z,64.000000
2023-05-09T03:30:34.568Z,65.066667
2023-05-09T03:35:16.977Z,65.733333
2023-05-09T03:40:19.144Z,66.400000
2023-05-09T03:45:21.293Z,66.866667
2023-05-09T03:50:23.304Z,65.428571
2023-05-09T03:55:26.246Z,65.466667
2023-05-09T04:00:28.986Z,66.333333
2023-05-09T04:05:31.678Z,66.666667
2023-05-09T04:10:34.515Z,67.000000
2023-05-09T04:15:16.995Z,66.933333
2023-05-09T04:20:19.506Z,65.266667
2023-05-09T04:25:22.089Z,64.285714
2023-05-09T04:30:24.501Z,64.866667
2023-05-09T04:35:27.139Z,64.533333
2023-05-09T04:40:29.877Z,64.000000
2023-05-09T04:45:32.334Z,63.266667
2023-05-09T04:50:35.154Z,63.000000
2023-05-09T04:55:17.748Z,62.400000
2023-05-09T05:00:20.000Z,61.133333
2023-05-09T05:05:24.975Z,60.500000
2023-05-09T05:10:24.999Z,58.933333
2023-05-09T05:15:27.273Z,57.266667
2023-05-09T05:20:29.511Z,57.866667
2023-05-09T05:25:32.243Z,59.200000
2023-05-09T05:30:34.796Z,60.000000
2023-05-09T05:35:17.414Z,60.933333
2023-05-09T05:40:19.802Z,61.200000
2023-05-09T05:45:22.360Z,65.285714
2023-05-09T05:50:24.913Z,70.000000
2023-05-09T05:55:27.338Z,71.400000
2023-05-09T06:00:29.822Z,72.733333
2023-05-09T06:05:32.561Z,72.266667
2023-05-09T06:10:34.722Z,73.533333
2023-05-09T06:15:17.336Z,74.600000
2023-05-09T06:20:19.931Z,75.200000
2023-05-09T06:25:22.317Z,75.571429
2023-05-09T06:30:26.991Z,76.533333
2023-05-09T06:35:27.336Z,79.066667
2023-05-09T06:40:29.699Z,81.333333
2023-05-09T06:45:32.041Z,82.666667
2023-05-09T06:50:34.355Z,83.800000
2023-05-09T06:55:16.895Z,85.133333
2023-05-09T07:00:19.453Z,85.200000
2023-05-09T07:05:22.137Z,85.857143
2023-05-09T07:10:24.861Z,86.933333
2023-05-09T07:15:40.670Z,88.000000
2023-05-09T07:20:30.374Z,88.000000
2023-05-09T07:25:32.807Z,88.000000
2023-05-09T07:30:35.313Z,88.600000
2023-05-09T07:35:17.389Z,89.000000
2023-05-09T07:40:20.045Z,90.000000
2023-05-09T07:45:23.908Z,90.000000
2023-05-09T07:50:25.159Z,90.000000
2023-05-09T07:55:27.569Z,90.466667
2023-05-09T08:00:30.026Z,91.000000
2023-05-09T08:05:32.546Z,91.133333
2023-05-09T08:10:35.274Z,92.000000
2023-05-09T08:15:17.475Z,92.000000
2023-05-09T08:20:19.441Z,92.466667
2023-05-09T08:25:22.495Z,92.928571
2023-05-09T08:30:24.540Z,92.933333
2023-05-09T08:35:27.442Z,93.066667
2023-05-09T08:40:29.848Z,93.600000
2023-05-09T08:45:32.506Z,94.000000
2023-05-09T08:50:35.128Z,93.400000
2023-05-09T08:55:17.087Z,93.000000
2023-05-09T09:00:20.810Z,93.000000
2023-05-09T09:05:39.979Z,93.000000
2023-05-09T09:10:25.559Z,92.666667
2023-05-09T09:15:28.139Z,91.266667
2023-05-09T09:20:31.674Z,90.733333
2023-05-09T09:25:34.086Z,90.000000
2023-05-09T09:30:16.428Z,90.800000
2023-05-09T09:35:19.260Z,91.000000
2023-05-09T09:40:21.661Z,91.000000
2023-05-09T09:45:24.277Z,90.500000
2023-05-09T09:50:26.909Z,90.000000
2023-05-09T09:55:30.782Z,90.000000
2023-05-09T10:00:33.268Z,91.000000
2023-05-09T10:05:16.013Z,91.000000
2023-05-09T10:10:19.157Z,91.000000
2023-05-09T10:15:21.377Z,91.000000
2023-05-09T10:20:23.987Z,91.000000
2023-05-09T10:25:26.711Z,91.000000
2023-05-09T10:30:30.337Z,91.000000
2023-05-09T10:35:33.344Z,91.000000
2023-05-09T10:40:16.337Z,91.200000
2023-05-09T10:45:19.105Z,91.800000
2023-05-09T10:50:21.377Z,92.000000
2023-05-09T10:55:24.067Z,92.571429
2023-05-09T11:00:26.867Z,93.000000
2023-05-09T11:05:30.117Z,93.000000
2023-05-09T11:10:32.908Z,93.000000
2023-05-09T11:15:35.467Z,93.000000
2023-05-09T11:20:18.150Z,93.066667
2023-05-09T11:25:20.802Z,93.800000
2023-05-09T11:30:23.788Z,94.000000
2023-05-09T11:35:26.872Z,94.000000
2023-05-09T11:40:29.576Z,94.000000
2023-05-09T11:45:31.791Z,94.000000
2023-05-09T11:50:34.895Z,94.000000
2023-05-09T11:55:18.737Z,94.466667
2023-05-09T12:00:20.858Z,95.000000
2023-05-09T12:05:23.390Z,95.000000
2023-05-09T12:10:25.721Z,95.000000
2023-05-09T12:15:28.575Z,95.466667
2023-05-09T12:20:31.553Z,96.000000
2023-05-09T12:25:34.942Z,96.000000
2023-05-09T12:30:16.628Z,96.000000
2023-05-09T12:35:19.404Z,96.000000
2023-05-09T12:40:22.009Z,96.000000
2023-05-09T12:45:24.322Z,96.000000
2023-05-09T12:50:26.979Z,96.000000
2023-05-09T12:55:29.176Z,96.000000
2023-05-09T13:00:31.933Z,96.000000
2023-05-09T13:05:34.583Z,96.000000
2023-05-09T13:10:17.196Z,96.000000
2023-05-09T13:15:19.654Z,96.000000
2023-05-09T13:20:21.993Z,95.500000
2023-05-09T13:25:24.405Z,93.733333
2023-05-09T13:30:27.192Z,91.466667
2023-05-09T13:35:29.415Z,89.800000
2023-05-09T13:40:32.095Z,88.466667
2023-05-09T13:45:34.302Z,86.933333
2023-05-09T13:50:16.730Z,85.000000
2023-05-09T13:55:18.858Z,83.200000
2023-05-09T14:00:21.148Z,81.933333
2023-05-09T14:05:23.834Z,81.357143
2023-05-09T14:10:25.760Z,82.066667
2023-05-09T14:15:27.801Z,81.733333
2023-05-09T14:20:29.746Z,80.266667
2023-05-09T14:25:31.858Z,80.533333
2023-05-09T14:30:33.533Z,81.733333
2023-05-09T14:35:35.485Z,81.600000
2023-05-09T14:40:17.957Z,80.400000
2023-05-09T14:45:20.835Z,79.733333
2023-05-09T14:50:23.022Z,78.285714
2023-05-09T14:55:25.428Z,77.733333
2023-05-09T15:00:28.973Z,77.933333
2023-05-09T15:05:30.805Z,76.866667
2023-05-09T15:10:33.553Z,75.333333
2023-05-09T15:15:35.773Z,73.333333
2023-05-09T15:20:18.704Z,72.066667
2023-05-09T15:25:21.780Z,72.266667
2023-05-09T15:30:24.320Z,73.142857
2023-05-09T15:35:27.259Z,72.266667
2023-05-09T15:40:30.016Z,70.666667
2023-05-09T15:45:32.740Z,69.600000
2023-05-09T15:50:35.959Z,69.733333
2023-05-09T15:55:19.094Z,70.066667
2023-05-09T16:00:21.060Z,70.000000
2023-05-09T16:05:23.533Z,68.714286
2023-05-09T16:10:25.918Z,67.733333
2023-05-09T16:15:28.196Z,67.333333
2023-05-09T16:20:31.448Z,66.666667
2023-05-09T16:25:35.434Z,68.000000
2023-05-09T16:30:17.401Z,67.733333
2023-05-09T16:35:20.066Z,68.400000
2023-05-09T16:40:22.726Z,68.357143
2023-05-09T16:45:25.083Z,66.533333
2023-05-09T16:50:28.116Z,64.866667
2023-05-09T16:55:30.318Z,64.200000
2023-05-09T17:00:32.779Z,63.600000
2023-05-09T17:05:35.417Z,61.733333
2023-05-09T17:10:17.680Z,62.466667
2023-05-09T17:15:20.102Z,61.400000
2023-05-09T17:20:22.316Z,61.000000
2023-05-09T17:25:25.029Z,58.400000
2023-05-09T17:30:28.189Z,57.666667
2023-05-09T17:35:30.610Z,57.933333
2023-05-09T17:40:32.893Z,57.466667
2023-05-09T17:45:35.107Z,56.533333
2023-05-09T17:50:17.709Z,56.733333
2023-05-09T17:55:19.967Z,57.000000
2023-05-09T18:00:22.775Z,56.071429
2023-05-09T18:05:26.773Z,55.800000
2023-05-09T18:10:27.770Z,55.800000
2023-05-09T18:15:30.816Z,56.400000
2023-05-09T18:20:33.256Z,55.066667
2023-05-09T18:25:16.003Z,54.733333
2023-05-09T18:30:18.867Z,55.133333
2023-05-09T18:35:22.405Z,54.428571
2023-05-09T18:40:24.943Z,54.000000
2023-05-09T18:45:27.222Z,53.866667
2023-05-09T18:50:30.436Z,52.466667
2023-05-09T18:55:33.747Z,52.133333
2023-05-09T19:00:16.449Z,52.400000
2023-05-09T19:05:20.561Z,52.400000
2023-05-09T19:10:23.053Z,52.142857
2023-05-09T19:15:25.657Z,51.266667
2023-05-09T19:20:28.340Z,50.933333
2023-05-09T19:25:32.097Z,50.133333
2023-05-09T19:30:35.184Z,49.200000
2023-05-09T19:35:18.047Z,49.200000
2023-05-09T19:40:21.184Z,50.333333
2023-05-09T19:45:23.826Z,49.428571
2023-05-09T19:50:27.087Z,48.933333
2023-05-09T19:55:29.818Z,47.466667
2023-05-09T20:00:33.165Z,47.933333
2023-05-09T20:05:35.454Z,47.066667
2023-05-09T20:10:18.202Z,46.266667
2023-05-09T20:15:21.012Z,46.666667
2023-05-09T20:20:23.436Z,46.285714
2023-05-09T20:25:26.624Z,45.533333
2023-05-09T20:30:29.559Z,46.333333
2023-05-09T20:35:32.885Z,46.666667
2023-05-09T20:40:35.913Z,46.400000
2023-05-09T20:45:18.884Z,46.733333
2023-05-09T20:50:22.768Z,45.714286
2023-05-09T20:55:25.694Z,45.000000
2023-05-09T21:00:28.177Z,46.000000
2023-05-09T21:05:31.723Z,45.400000
2023-05-09T21:10:34.217Z,45.000000
2023-05-09T21:15:17.187Z,45.466667
2023-05-09T21:20:20.112Z,44.533333
2023-05-09T21:25:23.602Z,43.642857
2023-05-09T21:30:27.055Z,44.400000
2023-05-09T21:35:29.536Z,44.266667
2023-05-09T21:40:32.111Z,44.600000
2023-05-09T21:45:34.965Z,44.133333
2023-05-09T21:50:17.832Z,44.533333
2023-05-09T21:55:20.061Z,44.533333
2023-05-09T22:00:22.907Z,43.357143
2023-05-09T22:05:25.847Z,43.066667
2023-05-09T22:10:29.091Z,44.000000
2023-05-09T22:15:32.311Z,42.200000
2023-05-09T22:20:34.982Z,40.866667
2023-05-09T22:25:17.057Z,40.266667
2023-05-09T22:30:19.607Z,38.133333
2023-05-09T22:35:21.967Z,38.666667
2023-05-09T22:40:24.693Z,37.857143
2023-05-09T22:45:27.763Z,38.133333
2023-05-09T22:50:30.295Z,38.000000
2023-05-09T22:55:32.738Z,37.200000
2023-05-09T23:00:35.300Z,38.733333
2023-05-09T23:05:17.863Z,38.533333
2023-05-09T23:10:21.036Z,38.066667
2023-05-09T23:15:24.056Z,38.500000
2023-05-09T23:20:26.591Z,37.400000
2023-05-09T23:25:29.049Z,36.200000
2023-05-09T23:30:31.536Z,36.200000
2023-05-09T23:35:34.494Z,36.333333
2023-05-09T23:40:17.640Z,36.533333
2023-05-09T23:45:20.478Z,36.533333
2023-05-09T23:50:23.398Z,37.000000
2023-05-09T23:55:26.503Z,37.600000
